Аэропорт: Борисполь. Киев

ICAO: UKBB

METAR:
2018/09/23 11:00
UKBB 231100Z 26004MPS 9999 SCT032 14/08 Q1017 R36R/190060 NOSIG
METAR:
2018/09/23 06:51
TAF UKBB 230500Z 2306/2406 26004G10MPS 9999 BKN020 
      TEMPO 2307/2312 3000 -SHRA BKN007 SCT015CB 
      BECMG 2315/2317 20003G08MPS